Terminal Aerodrome Forecast
Issued by NWS

Home | Current Version | Previous Version | Text Only | Print | Product List | Glossary On
Versions: 1 2 3 4 5 6 7 8 9 10 11 12 13 14 15 16 17 18 19 20 21 22 23 24 25 26 27 28 29 30 31 32 33 34
000
FTUS45 KCYS 230534
TAFRWL
TAF
KRWL 230534Z 2306/2406 27020G32KT P6SM BKN025 BKN050 OVC100
     FM230900 28018G28KT P6SM -SN BKN015 OVC025
     FM231500 30020G30KT P6SM -SN BKN025 BKN050 OVC100
     FM240000 28020G30KT P6SM BKN100 BKN250=

USA.gov is the U.S. government's official web portal to all federal, state and local government web resources and services.